Aeroporto :
LOGIN :

Iscrizione | Disclaimer

   EN    FR    IT 

 










Sommario :    VFR   VFR Marginale   IFR   IFR Intensivo   IFR Molto Intensivo
Visibilità : 
Base nubi : 
>= 8 km
>= 3000ft
5 / 8 km
1000 / 3000 ft
1500m / 5 km
500 / 1000 ft
800 / 1500m
200 / 500 ft
< 800m
< 200 ft
Simboli :   Temporali  Nebbia  Neve Forte  Precipitazioni Forti  Vento > 20 kt
SIGMETs :   Varie  Temporali  Ghiacco  Turbolenza  Onda orograficha  Ceneri Vulcaniche







- Altitudine del aeroporto : 755 ft
- Codice IATA : DRS


EDDC - Dresden Klotzsche

ULTIMO METAR :
  • 170720Z 17004KT CAVOK 13/12 Q1023 NOSIG

METARs OBSOLETI :
  • 170650Z 17005KT CAVOK 12/11 Q1023 NOSIG
  • 170620Z 17006KT 8000 NSC 11/11 Q1023 NOSIG
  • 170550Z 17006KT 140V210 8000 NSC 11/10 Q1023 NOSIG
  • 170520Z 17006KT 8000 NSC 11/11 Q1023 NOSIG
  • 170450Z 22003KT 170V260 CAVOK 11/11 Q1023 NOSIG

TAF TAF EDDC
Valido dal 17 a 06 ore il 18 a 06 ore UTC


170500Z 1706/1806 15004KT CAVOK
BECMG 1803/1806 2500 BR
Nessun NOTAM noto per questo aeroporto.



MetMap, La meteo Aeronautica in un colpo d'occhio ! - Copyright ORBIFLY Dicembre 2007 - Disclaimer

ORBIFLY MET'MAP TEAM :

Programmazione e sviluppo : Alexandra Zaïnal
Concezione e sviluppo : Baudouin d'Aumeries
Co-Programmazione e sviluppo : Marc-Olivier Méhu
Supporto tecnico e logistico : Manuel Goepfert
Aiuto per la traduzione : Arnaldo La Scala

Contatto : metmap@orbifly.com




FONTI E CREDITI :

   NOAA